createdAt,value
2023-04-12T00:00:23.745Z,2.70
2023-04-12T00:02:54.651Z,3.39
2023-04-12T00:05:27.566Z,3.56
2023-04-12T00:07:55.996Z,3.53
2023-04-12T00:10:24.133Z,2.61
2023-04-12T00:12:51.966Z,1.78
2023-04-12T00:15:20.126Z,1.75
2023-04-12T00:17:48.075Z,2.32
2023-04-12T00:20:16.854Z,2.51
2023-04-12T00:22:45.338Z,2.78
2023-04-12T00:25:13.205Z,2.35
2023-04-12T00:27:41.327Z,2.33
2023-04-12T00:30:10.142Z,2.69
2023-04-12T00:32:38.060Z,2.78
2023-04-12T00:35:06.365Z,2.37
2023-04-12T00:37:36.648Z,2.23
2023-04-12T00:40:10.311Z,2.77
2023-04-12T00:42:39.745Z,3.05
2023-04-12T00:45:08.602Z,2.53
2023-04-12T00:47:38.303Z,2.17
2023-04-12T00:50:08.768Z,2.04
2023-04-12T00:52:36.742Z,1.96
2023-04-12T00:55:05.472Z,1.72
2023-04-12T00:57:39.828Z,1.40
2023-04-12T01:00:13.116Z,1.77
2023-04-12T01:02:51.135Z,2.45
2023-04-12T01:05:23.106Z,2.49
2023-04-12T01:08:11.021Z,2.28
2023-04-12T01:11:01.542Z,2.43
2023-04-12T01:13:53.195Z,2.98
2023-04-12T01:16:46.394Z,3.06
2023-04-12T01:19:37.154Z,3.06
2023-04-12T01:22:24.692Z,3.05
2023-04-12T01:25:17.115Z,3.00
2023-04-12T01:27:50.289Z,2.76
2023-04-12T01:30:21.631Z,2.40
2023-04-12T01:32:51.783Z,2.08
2023-04-12T01:35:23.222Z,2.01
2023-04-12T01:37:51.259Z,2.30
2023-04-12T01:40:19.809Z,1.99
2023-04-12T01:42:48.111Z,1.24
2023-04-12T01:45:16.068Z,1.50
2023-04-12T01:47:44.025Z,1.21
2023-04-12T01:50:23.456Z,1.28
2023-04-12T01:53:03.741Z,2.16
2023-04-12T01:55:34.591Z,2.10
2023-04-12T01:58:03.715Z,1.99
2023-04-12T02:00:36.202Z,1.35
2023-04-12T02:03:06.449Z,0.73
2023-04-12T02:05:35.005Z,0.53
2023-04-12T02:08:04.386Z,0.49
2023-04-12T02:10:33.651Z,0.39
2023-04-12T02:13:02.682Z,0.31
2023-04-12T02:15:31.636Z,0.34
2023-04-12T02:18:00.804Z,0.36
2023-04-12T02:20:29.661Z,0.33
2023-04-12T02:22:57.568Z,0.03
2023-04-12T02:25:25.527Z,-0.14
2023-04-12T02:27:54.143Z,-0.06
2023-04-12T02:30:23.151Z,0.16
2023-04-12T02:32:53.416Z,0.07
2023-04-12T02:35:23.074Z,0.20
2023-04-12T02:37:51.819Z,0.64
2023-04-12T02:40:19.678Z,0.76
2023-04-12T02:42:47.959Z,0.60
2023-04-12T02:45:16.251Z,0.80
2023-04-12T02:47:44.286Z,1.41
2023-04-12T02:50:12.641Z,0.98
2023-04-12T02:52:42.040Z,0.42
2023-04-12T02:55:10.819Z,0.04
2023-04-12T02:57:39.557Z,0.09
2023-04-12T03:00:18.015Z,0.83
2023-04-12T03:02:46.727Z,1.21
2023-04-12T03:05:15.522Z,1.15
2023-04-12T03:07:44.034Z,1.29
2023-04-12T03:10:13.064Z,1.76
2023-04-12T03:12:41.758Z,1.81
2023-04-12T03:15:12.840Z,1.36
2023-04-12T03:17:41.500Z,1.52
2023-04-12T03:20:10.408Z,1.66
2023-04-12T03:22:39.585Z,2.14
2023-04-12T03:25:10.016Z,2.15
2023-04-12T03:27:40.456Z,2.33
2023-04-12T03:30:09.510Z,2.10
2023-04-12T03:32:44.755Z,2.08
2023-04-12T03:35:13.855Z,2.02
2023-04-12T03:37:46.079Z,2.40
2023-04-12T03:40:14.463Z,2.60
2023-04-12T03:42:43.268Z,2.91
2023-04-12T03:45:12.006Z,3.06
2023-04-12T03:47:41.141Z,3.09
2023-04-12T03:50:12.244Z,3.33
2023-04-12T03:52:42.928Z,3.47
2023-04-12T03:55:13.897Z,3.33
2023-04-12T03:57:42.330Z,3.56
2023-04-12T04:00:11.804Z,3.59
2023-04-12T04:02:47.715Z,3.80
2023-04-12T04:05:16.624Z,3.84
2023-04-12T04:07:45.240Z,4.13
2023-04-12T04:10:13.761Z,4.29
2023-04-12T04:12:42.596Z,4.42
2023-04-12T04:15:11.317Z,4.62
2023-04-12T04:17:39.120Z,4.81
2023-04-12T04:20:09.435Z,5.00
2023-04-12T04:22:38.663Z,5.25
2023-04-12T04:25:06.905Z,5.47
2023-04-12T04:30:24.143Z,5.85
2023-04-12T04:32:53.243Z,6.12
2023-04-12T04:35:22.100Z,6.32
2023-04-12T04:37:53.166Z,6.54
2023-04-12T04:40:21.854Z,6.79
2023-04-12T04:42:55.622Z,7.00
2023-04-12T04:45:32.629Z,7.31
2023-04-12T04:48:01.696Z,7.48
2023-04-12T04:50:30.006Z,7.72
2023-04-12T04:52:58.077Z,7.96
2023-04-12T04:55:26.115Z,8.26
2023-04-12T04:57:54.387Z,8.53
2023-04-12T05:00:22.423Z,8.85
2023-04-12T05:02:52.017Z,9.15
2023-04-12T05:05:25.634Z,9.36
2023-04-12T05:07:55.837Z,9.63
2023-04-12T05:10:25.041Z,9.94
2023-04-12T05:12:53.407Z,10.28
2023-04-12T05:15:21.609Z,10.53
2023-04-12T05:17:49.885Z,10.81
2023-04-12T05:20:18.741Z,11.10
2023-04-12T05:22:46.610Z,11.38
2023-04-12T05:25:15.154Z,11.69
2023-04-12T05:27:44.815Z,12.00
2023-04-12T05:30:14.991Z,12.18
2023-04-12T05:32:43.321Z,12.39
2023-04-12T05:35:13.001Z,12.57
2023-04-12T05:37:42.629Z,12.82
2023-04-12T05:40:11.271Z,13.31
2023-04-12T05:42:40.087Z,13.60
2023-04-12T05:45:08.738Z,13.74
2023-04-12T05:47:37.651Z,14.21
2023-04-12T05:50:07.207Z,14.50
2023-04-12T05:52:37.395Z,14.68
2023-04-12T05:55:06.524Z,14.94
2023-04-12T05:57:35.148Z,15.24
2023-04-12T06:00:07.422Z,15.53
2023-04-12T06:02:41.431Z,15.79
2023-04-12T06:05:10.650Z,15.93
2023-04-12T06:07:39.857Z,16.20
2023-04-12T06:10:08.590Z,16.43
2023-04-12T06:12:37.842Z,16.60
2023-04-12T06:15:06.860Z,16.69
2023-04-12T06:17:35.534Z,16.88
2023-04-12T06:20:12.048Z,17.02
2023-04-12T06:22:40.205Z,17.29
2023-04-12T06:25:08.978Z,17.34
2023-04-12T06:27:36.949Z,17.48
2023-04-12T06:30:05.339Z,17.77
2023-04-12T06:32:34.384Z,17.99
2023-04-12T06:35:02.338Z,18.18
2023-04-12T06:37:30.765Z,18.45
2023-04-12T06:39:59.205Z,18.74
2023-04-12T06:42:26.975Z,19.23
2023-04-12T06:44:55.538Z,19.41
2023-04-12T06:47:25.662Z,19.59
2023-04-12T06:49:56.218Z,19.78
2023-04-12T06:52:28.168Z,19.82
2023-04-12T06:54:57.193Z,19.95
2023-04-12T06:57:25.558Z,19.82
2023-04-12T06:59:53.361Z,20.15
2023-04-12T07:02:21.471Z,20.44
2023-04-12T07:04:54.550Z,20.51
2023-04-12T07:07:22.373Z,20.42
2023-04-12T07:09:52.567Z,20.44
2023-04-12T07:12:20.473Z,20.80
2023-04-12T07:14:48.309Z,20.40
2023-04-12T07:17:16.561Z,20.68
2023-04-12T07:19:44.814Z,21.10
2023-04-12T07:22:13.815Z,21.42
2023-04-12T07:24:43.056Z,21.16
2023-04-12T07:27:11.533Z,21.19
2023-04-12T07:29:39.457Z,21.59
2023-04-12T07:32:09.216Z,21.48
2023-04-12T07:34:37.892Z,22.07
2023-04-12T07:37:06.466Z,22.15
2023-04-12T07:39:35.268Z,22.29
2023-04-12T07:42:03.247Z,21.66
2023-04-12T07:44:31.768Z,22.42
2023-04-12T07:47:00.099Z,23.09
2023-04-12T07:49:28.171Z,22.75
2023-04-12T07:51:56.632Z,23.14
2023-04-12T07:54:28.116Z,23.39
2023-04-12T07:57:05.323Z,22.64
2023-04-12T07:59:33.978Z,21.77
2023-04-12T08:02:03.496Z,22.26
2023-04-12T08:04:31.805Z,23.27
2023-04-12T08:06:59.668Z,23.28
2023-04-12T08:09:27.510Z,24.06
2023-04-12T08:11:56.235Z,23.82
2023-04-12T08:14:24.124Z,24.45
2023-04-12T08:16:52.007Z,24.87
2023-04-12T08:19:20.989Z,24.46
2023-04-12T08:21:48.853Z,24.24
2023-04-12T08:24:16.606Z,24.89
2023-04-12T08:26:44.846Z,24.09
2023-04-12T08:29:13.292Z,23.68
2023-04-12T08:31:41.330Z,24.53
2023-04-12T08:34:09.482Z,24.66
2023-04-12T08:36:37.452Z,24.86
2023-04-12T08:39:05.368Z,24.15
2023-04-12T08:41:37.610Z,24.18
2023-04-12T08:44:06.383Z,24.30
2023-04-12T08:46:37.575Z,24.19
2023-04-12T08:49:05.697Z,24.83
2023-04-12T08:51:36.580Z,23.86
2023-04-12T08:54:05.808Z,23.37
2023-04-12T08:56:33.619Z,23.61
2023-04-12T08:59:01.932Z,23.49
2023-04-12T09:01:31.388Z,24.45
2023-04-12T09:03:59.565Z,25.21
2023-04-12T09:06:27.724Z,24.83
2023-04-12T09:08:58.306Z,24.83
2023-04-12T09:11:28.995Z,23.53
2023-04-12T09:13:58.923Z,24.67
2023-04-12T09:16:42.979Z,25.54
2023-04-12T09:19:11.353Z,24.74
2023-04-12T09:21:53.603Z,24.86
2023-04-12T09:24:24.566Z,24.80
2023-04-12T09:27:07.031Z,24.18
2023-04-12T09:29:35.333Z,25.69
2023-04-12T09:32:05.503Z,25.28
2023-04-12T09:34:36.116Z,25.86
2023-04-12T09:37:17.071Z,25.44
2023-04-12T09:39:45.118Z,24.98
2023-04-12T09:42:32.444Z,26.57
2023-04-12T09:45:22.432Z,26.47
2023-04-12T09:47:50.864Z,25.00
2023-04-12T09:50:24.676Z,24.75
2023-04-12T09:52:54.728Z,26.21
2023-04-12T09:55:24.366Z,26.78
2023-04-12T09:57:54.283Z,26.25
2023-04-12T10:00:24.041Z,25.71
2023-04-12T10:02:53.702Z,25.20
2023-04-12T10:05:25.653Z,25.69
2023-04-12T10:07:55.476Z,26.04
2023-04-12T10:10:24.564Z,25.76
2023-04-12T10:12:52.618Z,26.06
2023-04-12T10:15:22.390Z,26.97
2023-04-12T10:17:55.313Z,26.75
2023-04-12T10:20:26.357Z,24.37
2023-04-12T10:22:57.251Z,25.86
2023-04-12T10:25:27.981Z,26.51
2023-04-12T10:27:56.308Z,23.82
2023-04-12T10:30:30.925Z,22.03
2023-04-12T10:33:05.617Z,23.25
2023-04-12T10:35:48.911Z,25.42
2023-04-12T10:38:18.109Z,24.31
2023-04-12T10:41:09.393Z,24.17
2023-04-12T10:43:38.041Z,24.96
2023-04-12T10:46:07.135Z,23.04
2023-04-12T10:48:39.582Z,22.86
2023-04-12T10:51:15.779Z,23.75
2023-04-12T10:53:44.165Z,23.67
2023-04-12T10:56:33.035Z,24.34
2023-04-12T10:59:03.206Z,23.52
2023-04-12T11:01:32.562Z,24.86
2023-04-12T11:04:08.163Z,24.40
2023-04-12T11:06:59.680Z,22.38
2023-04-12T11:09:34.903Z,23.80
2023-04-12T11:12:15.478Z,23.89
2023-04-12T11:14:52.746Z,23.64
2023-04-12T11:17:24.354Z,24.59
2023-04-12T11:19:56.602Z,23.78
2023-04-12T11:22:28.001Z,23.66
2023-04-12T11:24:58.435Z,23.19
2023-04-12T11:27:28.489Z,22.44
2023-04-12T11:29:59.554Z,23.49
2023-04-12T11:32:30.531Z,22.84
2023-04-12T11:34:59.170Z,22.31
2023-04-12T11:37:31.196Z,23.00
2023-04-12T11:39:59.635Z,22.57
2023-04-12T11:42:29.545Z,22.51
2023-04-12T11:45:02.473Z,22.70
2023-04-12T11:47:35.229Z,21.84
2023-04-12T11:50:03.169Z,24.59
2023-04-12T11:52:32.815Z,22.53
2023-04-12T11:55:05.461Z,22.49
2023-04-12T11:57:33.938Z,22.16
2023-04-12T12:00:06.541Z,21.91
2023-04-12T12:02:46.488Z,22.26
2023-04-12T12:05:25.482Z,22.26
2023-04-12T12:07:54.937Z,22.31
2023-04-12T12:10:41.609Z,22.53
2023-04-12T12:13:15.253Z,22.26
2023-04-12T12:15:46.503Z,23.14
2023-04-12T12:18:14.853Z,23.02
2023-04-12T12:20:48.470Z,23.21
2023-04-12T12:23:33.481Z,22.62
2023-04-12T12:26:17.697Z,22.91
2023-04-12T12:28:55.385Z,23.75
2023-04-12T12:31:26.911Z,23.90
2023-04-12T12:33:59.878Z,24.33
2023-04-12T12:36:36.517Z,24.41
2023-04-12T12:39:07.993Z,24.38
2023-04-12T12:41:36.246Z,24.58
2023-04-12T12:44:04.462Z,25.13
2023-04-12T12:46:50.991Z,25.08
2023-04-12T12:49:20.592Z,25.21
2023-04-12T12:51:48.956Z,25.52
2023-04-12T12:54:36.171Z,25.45
2023-04-12T12:57:06.425Z,25.65
2023-04-12T12:59:34.351Z,25.94
2023-04-12T13:02:02.254Z,25.40
2023-04-12T13:04:30.858Z,25.31
2023-04-12T13:06:58.727Z,25.12
2023-04-12T13:09:26.578Z,25.15
2023-04-12T13:11:54.889Z,25.36
2023-04-12T13:14:22.612Z,25.37
2023-04-12T13:16:50.743Z,26.09
2023-04-12T13:19:19.005Z,26.88
2023-04-12T13:21:47.710Z,27.16
2023-04-12T13:24:15.801Z,27.71
2023-04-12T13:26:44.012Z,27.77
2023-04-12T13:29:11.751Z,27.02
2023-04-12T13:31:39.628Z,27.03
2023-04-12T13:34:07.848Z,27.40
2023-04-12T13:36:35.887Z,27.34
2023-04-12T13:39:04.117Z,26.75
2023-04-12T13:41:33.293Z,27.12
2023-04-12T13:44:01.895Z,26.60
2023-04-12T13:46:29.897Z,26.87
2023-04-12T13:48:58.502Z,27.32
2023-04-12T13:51:27.053Z,27.81
2023-04-12T13:53:55.688Z,28.15
2023-04-12T13:56:23.886Z,28.28
2023-04-12T13:58:52.232Z,27.89
2023-04-12T14:01:23.010Z,27.38
2023-04-12T14:03:53.787Z,26.82
2023-04-12T14:06:21.578Z,26.44
2023-04-12T14:08:49.776Z,26.09
2023-04-12T14:11:17.992Z,25.14
2023-04-12T14:13:45.904Z,25.09
2023-04-12T14:16:13.879Z,24.59
2023-04-12T14:18:42.250Z,24.07
2023-04-12T14:21:10.970Z,24.00
2023-04-12T14:23:38.950Z,24.48
2023-04-12T14:26:07.452Z,24.44
2023-04-12T14:28:35.834Z,24.14
2023-04-12T14:31:06.242Z,23.48
2023-04-12T14:33:34.855Z,22.09
2023-04-12T14:36:05.322Z,20.80
2023-04-12T14:38:33.318Z,20.09
2023-04-12T14:41:02.298Z,19.54
2023-04-12T14:43:30.228Z,18.99
2023-04-12T14:45:58.110Z,18.57
2023-04-12T14:48:26.748Z,18.27
2023-04-12T14:50:55.892Z,18.07
2023-04-12T14:53:23.927Z,18.31
2023-04-12T14:55:52.161Z,18.04
2023-04-12T14:58:19.965Z,17.78
2023-04-12T15:00:49.416Z,17.73
2023-04-12T15:03:18.202Z,17.67
2023-04-12T15:05:47.157Z,17.45
2023-04-12T15:08:14.969Z,17.43
2023-04-12T15:10:43.072Z,17.23
2023-04-12T15:13:11.563Z,17.09
2023-04-12T15:15:39.867Z,16.86
2023-04-12T15:18:09.100Z,16.83
2023-04-12T15:20:37.347Z,17.08
2023-04-12T15:23:06.822Z,17.80
2023-04-12T15:25:35.040Z,17.50
2023-04-12T15:28:03.305Z,17.02
2023-04-12T15:30:32.154Z,16.92
2023-04-12T15:33:00.534Z,16.87
2023-04-12T15:35:28.277Z,16.44
2023-04-12T15:37:56.139Z,15.88
2023-04-12T15:40:24.720Z,16.81
2023-04-12T15:42:52.567Z,16.44
2023-04-12T15:45:20.452Z,16.71
2023-04-12T15:47:48.768Z,16.62
2023-04-12T15:50:17.011Z,16.43
2023-04-12T15:52:45.012Z,16.53
2023-04-12T15:55:13.300Z,15.57
2023-04-12T15:57:41.123Z,15.80
2023-04-12T16:00:26.516Z,15.46
2023-04-12T16:02:56.657Z,15.13
2023-04-12T16:05:25.206Z,14.59
2023-04-12T16:07:54.387Z,14.71
2023-04-12T16:10:24.086Z,14.82
2023-04-12T16:12:52.915Z,14.33
2023-04-12T16:15:55.997Z,15.12
2023-04-12T16:18:31.708Z,14.59
2023-04-12T16:20:59.456Z,14.19
2023-04-12T16:23:28.476Z,13.78
2023-04-12T16:25:56.568Z,13.41
2023-04-12T16:28:24.469Z,13.23
2023-04-12T16:30:53.368Z,13.33
2023-04-12T16:33:21.093Z,12.99
2023-04-12T16:35:51.703Z,12.42
2023-04-12T16:38:19.878Z,12.08
2023-04-12T16:40:48.037Z,11.83
2023-04-12T16:43:15.921Z,11.64
2023-04-12T16:45:46.407Z,11.52
2023-04-12T16:48:16.702Z,11.97
2023-04-12T16:50:46.672Z,11.48
2023-04-12T16:53:15.956Z,11.48
2023-04-12T16:55:47.428Z,11.53
2023-04-12T16:58:16.075Z,11.23
2023-04-12T17:00:44.190Z,11.16
2023-04-12T17:05:58.614Z,10.81
2023-04-12T17:08:26.440Z,10.63
2023-04-12T17:10:54.935Z,10.39
2023-04-12T17:13:23.167Z,10.60
2023-04-12T17:15:51.044Z,11.05
2023-04-12T17:18:18.834Z,10.79
2023-04-12T17:20:47.555Z,11.27
2023-04-12T17:23:16.630Z,10.77
2023-04-12T17:25:44.778Z,10.45
2023-04-12T17:28:13.345Z,10.60
2023-04-12T17:30:41.402Z,10.36
2023-04-12T17:33:09.210Z,10.13
2023-04-12T17:35:37.825Z,10.20
2023-04-12T17:38:05.574Z,10.23
2023-04-12T17:40:33.395Z,10.06
2023-04-12T17:43:01.455Z,10.09
2023-04-12T17:51:02.732Z,10.45
2023-04-12T17:53:30.851Z,10.38
2023-04-12T17:55:58.540Z,10.05
2023-04-12T17:58:27.576Z,10.09
2023-04-12T18:00:56.013Z,9.75
2023-04-12T18:03:24.281Z,10.03
2023-04-12T18:05:53.803Z,9.79
2023-04-12T18:08:25.173Z,10.16
2023-04-12T18:10:53.242Z,11.04
2023-04-12T18:13:23.654Z,11.86
2023-04-12T18:15:51.603Z,11.77
2023-04-12T18:18:19.645Z,11.30
2023-04-12T18:20:47.461Z,11.17
2023-04-12T18:23:15.606Z,10.23
2023-04-12T18:25:43.714Z,10.54
2023-04-12T18:28:11.533Z,9.66
2023-04-12T18:30:39.320Z,10.69
2023-04-12T18:33:08.461Z,11.05
2023-04-12T18:35:39.224Z,11.04
2023-04-12T18:38:07.845Z,10.85
2023-04-12T18:40:39.306Z,10.02
2023-04-12T18:43:08.357Z,9.31
2023-04-12T18:45:40.460Z,9.48
2023-04-12T18:48:08.957Z,9.27
2023-04-12T18:50:40.403Z,8.80
2023-04-12T18:53:09.639Z,8.53
2023-04-12T18:55:37.518Z,8.28
2023-04-12T18:58:05.503Z,8.18
2023-04-12T19:00:34.171Z,7.94
2023-04-12T19:03:02.203Z,7.97
2023-04-12T19:05:30.902Z,7.59
2023-04-12T19:08:00.378Z,7.42
2023-04-12T19:10:31.745Z,7.77
2023-04-12T19:13:00.804Z,7.13
2023-04-12T19:15:28.771Z,7.51
2023-04-12T19:17:57.261Z,7.66
2023-04-12T19:20:27.656Z,7.60
2023-04-12T19:22:55.753Z,7.86
2023-04-12T19:25:26.793Z,7.13
2023-04-12T19:27:55.125Z,7.15
2023-04-12T19:30:23.029Z,6.65
2023-04-12T19:32:51.010Z,7.04
2023-04-12T19:35:19.658Z,6.83
2023-04-12T19:37:47.794Z,6.73
2023-04-12T19:40:16.224Z,7.45
2023-04-12T19:42:44.674Z,6.87
2023-04-12T19:45:13.354Z,6.57
2023-04-12T19:47:45.561Z,6.12
2023-04-12T19:50:15.824Z,6.21
2023-04-12T19:52:44.516Z,6.76
2023-04-12T19:55:12.800Z,7.08
2023-04-12T19:57:42.841Z,6.95
2023-04-12T20:00:21.381Z,7.18
2023-04-12T20:02:53.695Z,7.05
2023-04-12T20:05:23.636Z,7.10
2023-04-12T20:07:56.014Z,7.46
2023-04-12T20:10:24.251Z,6.70
2023-04-12T20:12:52.453Z,7.24
2023-04-12T20:15:21.120Z,6.99
2023-04-12T20:17:51.679Z,6.61
2023-04-12T20:20:20.259Z,7.24
2023-04-12T20:22:53.189Z,7.08
2023-04-12T20:25:25.253Z,7.00
2023-04-12T20:28:05.667Z,7.06
2023-04-12T20:30:33.963Z,6.44
2023-04-12T20:33:02.445Z,6.32
2023-04-12T20:35:43.669Z,6.35
2023-04-12T20:38:12.902Z,6.61
2023-04-12T20:40:41.033Z,6.50
2023-04-12T20:43:09.269Z,6.75
2023-04-12T20:45:39.102Z,7.20
2023-04-12T20:48:07.762Z,6.97
2023-04-12T20:50:36.805Z,7.14
2023-04-12T20:53:04.981Z,6.99
2023-04-12T20:55:35.902Z,7.24
2023-04-12T20:58:06.421Z,6.87
2023-04-12T21:00:35.989Z,6.90
2023-04-12T21:03:06.844Z,7.36
2023-04-12T21:05:36.929Z,7.32
2023-04-12T21:08:09.545Z,7.26
2023-04-12T21:10:38.370Z,7.19
2023-04-12T21:13:07.426Z,7.10
2023-04-12T21:15:36.105Z,7.08
2023-04-12T21:18:04.629Z,7.00
2023-04-12T21:20:35.289Z,7.12
2023-04-12T21:23:05.189Z,7.07
2023-04-12T21:25:35.398Z,7.25
2023-04-12T21:28:03.803Z,7.23
2023-04-12T21:30:31.699Z,7.33
2023-04-12T21:33:02.557Z,7.18
2023-04-12T21:35:30.632Z,7.34
2023-04-12T21:37:58.489Z,7.17
2023-04-12T21:40:27.052Z,7.18
2023-04-12T21:42:55.015Z,7.17
2023-04-12T21:45:22.840Z,7.24
2023-04-12T21:47:53.546Z,7.28
2023-04-12T21:50:21.518Z,7.53
2023-04-12T21:52:49.465Z,7.18
2023-04-12T21:55:18.918Z,7.05
2023-04-12T21:57:46.713Z,7.17
2023-04-12T22:00:15.851Z,7.22
2023-04-12T22:02:44.728Z,7.22
2023-04-12T22:05:12.767Z,7.38
2023-04-12T22:07:41.335Z,7.14
2023-04-12T22:10:10.204Z,6.85
2023-04-12T22:12:38.834Z,6.69
2023-04-12T22:15:07.051Z,6.63
2023-04-12T22:17:35.383Z,6.53
2023-04-12T22:20:07.886Z,6.66
2023-04-12T22:22:37.492Z,6.51
2023-04-12T22:25:24.801Z,6.48
2023-04-12T22:28:04.888Z,6.52
2023-04-12T22:30:51.948Z,6.65
2023-04-12T22:33:32.714Z,6.35
2023-04-12T22:36:02.442Z,6.39
2023-04-12T22:38:42.776Z,6.53
2023-04-12T22:41:10.677Z,6.66
2023-04-12T22:43:50.767Z,6.93
2023-04-12T22:46:19.061Z,6.57
2023-04-12T22:48:48.281Z,6.66
2023-04-12T22:51:29.138Z,6.89
2023-04-12T22:53:57.511Z,6.46
2023-04-12T22:56:47.621Z,6.28
2023-04-12T22:59:27.760Z,6.04
2023-04-12T23:01:56.556Z,6.08
2023-04-12T23:04:24.331Z,6.22
2023-04-12T23:06:56.984Z,6.31
2023-04-12T23:09:25.824Z,6.47
2023-04-12T23:12:06.725Z,6.20
2023-04-12T23:14:37.912Z,6.33
2023-04-12T23:17:19.949Z,5.96
2023-04-12T23:19:48.145Z,5.99
2023-04-12T23:22:52.635Z,6.35
2023-04-12T23:25:39.819Z,6.13
2023-04-12T23:28:28.112Z,5.80
2023-04-12T23:30:58.033Z,5.54
2023-04-12T23:33:50.950Z,5.77
2023-04-12T23:36:31.512Z,5.63
2023-04-12T23:39:12.320Z,5.42
2023-04-12T23:41:52.332Z,5.77
2023-04-12T23:44:32.003Z,5.79
2023-04-12T23:47:18.171Z,5.22
2023-04-12T23:49:47.132Z,5.40
2023-04-12T23:52:18.446Z,5.55
2023-04-12T23:54:47.258Z,5.60
2023-04-12T23:57:15.646Z,5.58
2023-04-12T23:59:43.482Z,5.56
